createdAt,value
2022-11-22T00:00:23.448Z,75.27
2022-11-22T00:02:50.372Z,75.98
2022-11-22T00:05:17.247Z,75.13
2022-11-22T00:07:44.165Z,75.41
2022-11-22T00:10:12.766Z,74.84
2022-11-22T00:12:40.577Z,75.18
2022-11-22T00:15:08.488Z,74.43
2022-11-22T00:17:35.496Z,74.91
2022-11-22T00:20:02.346Z,75.51
2022-11-22T00:22:31.506Z,75.36
2022-11-22T00:24:58.319Z,74.45
2022-11-22T00:27:25.655Z,75.19
2022-11-22T00:29:52.537Z,74.72
2022-11-22T00:32:19.491Z,74.76
2022-11-22T00:34:46.327Z,74.25
2022-11-22T00:37:13.277Z,74.32
2022-11-22T00:39:40.129Z,73.67
2022-11-22T00:42:07.068Z,74.01
2022-11-22T00:44:33.946Z,74.11
2022-11-22T00:47:00.917Z,74.18
2022-11-22T00:49:28.132Z,73.90
2022-11-22T00:51:55.304Z,74.34
2022-11-22T00:54:22.136Z,74.17
2022-11-22T00:56:49.084Z,73.84
2022-11-22T00:59:16.162Z,74.77
2022-11-22T01:01:43.138Z,74.17
2022-11-22T01:04:10.080Z,74.14
2022-11-22T01:06:36.994Z,73.88
2022-11-22T01:09:04.206Z,74.20
2022-11-22T01:11:31.230Z,73.59
2022-11-22T01:13:58.057Z,73.98
2022-11-22T01:16:24.944Z,73.59
2022-11-22T01:18:51.801Z,73.93
2022-11-22T01:21:18.774Z,73.35
2022-11-22T01:23:45.630Z,73.93
2022-11-22T01:26:12.922Z,73.62
2022-11-22T01:28:39.915Z,74.21
2022-11-22T01:31:07.058Z,73.71
2022-11-22T01:33:33.902Z,73.88
2022-11-22T01:36:00.895Z,73.50
2022-11-22T01:38:27.705Z,74.27
2022-11-22T01:40:54.794Z,74.27
2022-11-22T01:43:24.477Z,73.62
2022-11-22T01:46:31.779Z,73.89
2022-11-22T01:49:07.304Z,72.81
2022-11-22T01:51:41.303Z,73.52
2022-11-22T01:54:13.152Z,73.73
2022-11-22T01:56:44.320Z,73.77
2022-11-22T01:59:16.627Z,73.77
2022-11-22T02:01:44.070Z,73.97
2022-11-22T02:04:16.148Z,74.29
2022-11-22T02:07:12.120Z,73.69
2022-11-22T02:09:40.845Z,73.68
2022-11-22T02:12:10.033Z,73.67
2022-11-22T02:14:39.121Z,74.60
2022-11-22T02:17:06.250Z,74.48
2022-11-22T02:19:40.671Z,74.96
2022-11-22T02:22:33.738Z,74.71
2022-11-22T02:25:15.293Z,74.19
2022-11-22T02:27:43.038Z,74.05
2022-11-22T02:30:10.602Z,73.61
2022-11-22T02:32:37.602Z,74.06
2022-11-22T02:35:15.691Z,74.11
2022-11-22T02:37:42.919Z,74.11
2022-11-22T02:40:14.575Z,74.12
2022-11-22T02:42:50.726Z,73.63
2022-11-22T02:45:17.804Z,73.51
2022-11-22T02:47:44.686Z,73.89
2022-11-22T02:50:11.571Z,74.22
2022-11-22T02:52:38.421Z,73.78
2022-11-22T02:55:05.479Z,75.60
2022-11-22T02:57:32.414Z,74.86
2022-11-22T02:59:59.295Z,75.39
2022-11-22T03:02:26.147Z,74.82
2022-11-22T03:04:53.174Z,74.21
2022-11-22T03:07:20.027Z,73.99
2022-11-22T03:09:47.036Z,73.82
2022-11-22T03:12:13.865Z,74.61
2022-11-22T03:14:40.767Z,74.27
2022-11-22T03:17:07.657Z,73.67
2022-11-22T03:19:34.579Z,73.27
2022-11-22T03:22:01.369Z,73.30
2022-11-22T03:24:28.320Z,74.09
2022-11-22T03:26:55.152Z,73.80
2022-11-22T03:29:22.032Z,74.21
2022-11-22T03:31:48.965Z,74.37
2022-11-22T03:34:16.169Z,74.22
2022-11-22T03:36:43.736Z,74.29
2022-11-22T03:39:10.767Z,74.75
2022-11-22T03:41:37.785Z,74.44
2022-11-22T03:44:04.892Z,74.69
2022-11-22T03:46:31.830Z,74.31
2022-11-22T03:48:58.727Z,74.73
2022-11-22T03:51:26.859Z,73.92
2022-11-22T03:53:53.814Z,74.59
2022-11-22T03:56:20.774Z,73.93
2022-11-22T03:58:47.640Z,73.84
2022-11-22T04:01:16.746Z,74.17
2022-11-22T04:03:44.036Z,74.53
2022-11-22T04:06:10.835Z,74.78
2022-11-22T04:08:37.894Z,74.53
2022-11-22T04:11:05.155Z,73.91
2022-11-22T04:13:32.152Z,73.34
2022-11-22T04:15:58.959Z,74.31
2022-11-22T04:18:25.839Z,73.79
2022-11-22T04:20:52.690Z,73.83
2022-11-22T04:23:21.693Z,73.44
2022-11-22T04:25:53.863Z,74.04
2022-11-22T04:28:35.362Z,73.78
2022-11-22T04:31:10.464Z,74.56
2022-11-22T04:33:37.269Z,74.65
2022-11-22T04:36:07.689Z,74.12
2022-11-22T04:38:37.198Z,74.37
2022-11-22T04:41:04.545Z,73.58
2022-11-22T04:43:31.527Z,73.51
2022-11-22T04:45:58.411Z,73.84
2022-11-22T04:48:25.361Z,74.18
2022-11-22T04:50:52.201Z,73.64
2022-11-22T04:53:19.526Z,74.21
2022-11-22T04:55:47.410Z,73.87
2022-11-22T04:58:15.025Z,73.80
2022-11-22T05:00:41.976Z,73.76
2022-11-22T05:03:09.300Z,73.16
2022-11-22T05:05:38.499Z,73.64
2022-11-22T05:08:07.044Z,73.75
2022-11-22T05:10:34.838Z,73.96
2022-11-22T05:13:01.822Z,73.49
2022-11-22T05:15:28.686Z,73.33
2022-11-22T05:17:55.929Z,73.25
2022-11-22T05:20:22.718Z,73.56
2022-11-22T05:22:49.737Z,74.09
2022-11-22T05:25:19.204Z,73.23
2022-11-22T05:27:48.278Z,73.39
2022-11-22T05:30:15.193Z,73.28
2022-11-22T05:32:42.181Z,72.96
2022-11-22T05:35:09.338Z,73.23
2022-11-22T05:37:36.320Z,73.06
2022-11-22T05:40:03.297Z,73.03
2022-11-22T05:42:30.234Z,73.17
2022-11-22T05:44:57.337Z,73.45
2022-11-22T05:47:24.180Z,72.77
2022-11-22T05:49:50.965Z,73.00
2022-11-22T05:52:17.937Z,72.75
2022-11-22T05:54:44.788Z,72.27
2022-11-22T05:57:11.625Z,72.04
2022-11-22T05:59:43.787Z,72.23
2022-11-22T06:02:11.216Z,71.71
2022-11-22T06:04:38.103Z,73.13
2022-11-22T06:07:09.785Z,72.12
2022-11-22T06:09:37.250Z,72.33
2022-11-22T06:12:04.341Z,73.00
2022-11-22T06:14:31.261Z,72.13
2022-11-22T06:16:58.243Z,72.22
2022-11-22T06:19:25.231Z,72.36
2022-11-22T06:21:52.195Z,72.39
2022-11-22T06:24:19.108Z,72.30
2022-11-22T06:26:46.088Z,72.60
2022-11-22T06:29:13.064Z,72.96
2022-11-22T06:31:39.910Z,72.61
2022-11-22T06:34:06.984Z,72.56
2022-11-22T06:36:35.298Z,72.53
2022-11-22T06:39:02.194Z,72.13
2022-11-22T06:41:33.137Z,73.12
2022-11-22T06:44:00.022Z,72.75
2022-11-22T06:46:27.468Z,72.40
2022-11-22T06:48:54.570Z,72.44
2022-11-22T06:51:27.177Z,72.40
2022-11-22T06:53:54.940Z,72.56
2022-11-22T06:56:22.852Z,71.78
2022-11-22T06:58:51.443Z,72.40
2022-11-22T07:01:22.406Z,72.23
2022-11-22T07:03:50.405Z,71.69
2022-11-22T07:06:18.941Z,71.20
2022-11-22T07:08:46.776Z,71.68
2022-11-22T07:11:16.346Z,71.81
2022-11-22T07:13:43.808Z,72.05
2022-11-22T07:16:12.537Z,71.37
2022-11-22T07:18:39.936Z,71.13
2022-11-22T07:21:13.294Z,71.69
2022-11-22T07:23:46.084Z,71.73
2022-11-22T07:26:14.769Z,71.54
2022-11-22T07:28:42.678Z,72.08
2022-11-22T07:31:11.489Z,72.10
2022-11-22T07:33:38.864Z,71.77
2022-11-22T07:36:07.162Z,71.70
2022-11-22T07:38:34.707Z,71.16
2022-11-22T07:41:02.062Z,70.30
2022-11-22T07:43:29.507Z,70.44
2022-11-22T07:46:04.506Z,70.80
2022-11-22T07:48:31.459Z,70.24
2022-11-22T07:51:04.020Z,70.56
2022-11-22T07:53:31.132Z,71.39
2022-11-22T07:56:03.871Z,71.81
2022-11-22T07:58:31.387Z,71.31
2022-11-22T08:00:58.349Z,71.51
2022-11-22T08:03:28.843Z,71.84
2022-11-22T08:06:00.796Z,72.62
2022-11-22T08:08:28.459Z,72.34
2022-11-22T08:10:55.997Z,72.26
2022-11-22T08:13:23.321Z,72.53
2022-11-22T08:15:51.526Z,72.32
2022-11-22T08:18:21.899Z,72.90
2022-11-22T08:20:48.807Z,73.52
2022-11-22T08:23:15.762Z,73.48
2022-11-22T08:25:42.814Z,73.16
2022-11-22T08:28:09.712Z,73.24
2022-11-22T08:30:36.558Z,73.12
2022-11-22T08:33:03.447Z,73.42
2022-11-22T08:35:30.248Z,73.37
2022-11-22T08:37:57.705Z,73.76
2022-11-22T08:40:24.679Z,73.94
2022-11-22T08:42:54.451Z,73.52
2022-11-22T08:45:21.331Z,73.01
2022-11-22T08:47:48.190Z,72.35
2022-11-22T08:50:15.373Z,71.83
2022-11-22T08:52:42.205Z,73.79
2022-11-22T08:55:09.336Z,74.35
2022-11-22T08:57:36.254Z,73.68
2022-11-22T09:00:05.129Z,74.04
2022-11-22T09:02:32.117Z,74.23
2022-11-22T09:04:58.961Z,73.91
2022-11-22T09:10:12.929Z,74.00
2022-11-22T09:12:44.136Z,73.94
2022-11-22T09:15:11.691Z,74.18
2022-11-22T09:17:38.884Z,74.51
2022-11-22T09:20:06.864Z,74.69
2022-11-22T09:22:33.807Z,75.78
2022-11-22T09:25:00.864Z,75.07
2022-11-22T09:27:27.964Z,75.21
2022-11-22T09:29:54.989Z,75.45
2022-11-22T09:32:21.796Z,75.12
2022-11-22T09:34:48.772Z,75.78
2022-11-22T09:37:15.690Z,75.51
2022-11-22T09:39:47.958Z,75.41
2022-11-22T09:42:29.683Z,75.35
2022-11-22T09:45:14.604Z,74.51
2022-11-22T09:48:05.369Z,73.82
2022-11-22T09:50:51.716Z,74.04
2022-11-22T09:53:40.669Z,73.26
2022-11-22T09:56:16.688Z,72.62
2022-11-22T09:58:52.379Z,72.42
2022-11-22T10:01:37.282Z,72.65
2022-11-22T10:04:14.288Z,73.35
2022-11-22T10:06:46.318Z,72.77
2022-11-22T10:09:28.727Z,73.50
2022-11-22T10:12:04.668Z,73.76
2022-11-22T10:14:59.275Z,73.95
2022-11-22T10:17:45.578Z,73.35
2022-11-22T10:20:17.128Z,74.26
2022-11-22T10:22:44.433Z,73.98
2022-11-22T10:25:19.938Z,75.37
2022-11-22T10:28:11.914Z,74.81
2022-11-22T10:30:43.994Z,75.07
2022-11-22T10:33:23.194Z,75.25
2022-11-22T10:35:58.705Z,74.87
2022-11-22T10:39:04.301Z,74.82
2022-11-22T10:41:44.723Z,74.71
2022-11-22T10:44:20.275Z,74.47
2022-11-22T10:47:14.606Z,75.05
2022-11-22T10:50:11.920Z,73.92
2022-11-22T10:52:41.824Z,74.35
2022-11-22T10:55:23.571Z,74.04
2022-11-22T10:58:06.781Z,74.05
2022-11-22T11:00:39.494Z,74.59
2022-11-22T11:03:27.741Z,73.97
2022-11-22T11:06:22.794Z,73.20
2022-11-22T11:10:08.932Z,73.84
2022-11-22T11:12:36.101Z,73.10
2022-11-22T11:15:13.093Z,73.77
2022-11-22T11:17:43.167Z,74.38
2022-11-22T11:20:35.352Z,74.35
2022-11-22T11:23:17.649Z,73.60
2022-11-22T11:25:46.965Z,74.57
2022-11-22T11:28:18.832Z,74.20
2022-11-22T11:30:58.780Z,74.40
2022-11-22T11:33:31.204Z,73.96
2022-11-22T11:36:14.391Z,74.31
2022-11-22T11:38:41.251Z,75.13
2022-11-22T11:41:30.247Z,75.05
2022-11-22T11:44:00.486Z,75.24
2022-11-22T11:46:29.980Z,75.04
2022-11-22T11:49:10.755Z,74.47
2022-11-22T11:51:40.351Z,75.32
2022-11-22T11:54:15.918Z,75.19
2022-11-22T11:56:50.994Z,74.76
2022-11-22T11:59:42.450Z,75.48
2022-11-22T12:02:25.064Z,75.21
2022-11-22T12:04:54.922Z,74.74
2022-11-22T12:07:25.814Z,74.47
2022-11-22T12:09:55.207Z,73.73
2022-11-22T12:12:31.883Z,75.02
2022-11-22T12:15:11.847Z,74.45
2022-11-22T12:17:52.847Z,74.61
2022-11-22T12:20:29.403Z,74.66
2022-11-22T12:23:17.395Z,74.24
2022-11-22T12:25:45.871Z,74.08
2022-11-22T12:28:25.158Z,73.55
2022-11-22T12:30:55.876Z,73.89
2022-11-22T12:33:34.412Z,73.34
2022-11-22T12:36:04.846Z,73.44
2022-11-22T12:38:42.028Z,73.79
2022-11-22T12:41:13.986Z,74.17
2022-11-22T12:43:54.010Z,73.94
2022-11-22T12:46:30.370Z,73.67
2022-11-22T12:49:06.387Z,73.62
2022-11-22T12:51:58.495Z,73.48
2022-11-22T12:54:35.864Z,73.80
2022-11-22T12:57:14.172Z,73.83
2022-11-22T12:59:54.780Z,73.82
2022-11-22T13:02:33.591Z,73.88
2022-11-22T13:05:11.899Z,73.52
2022-11-22T13:08:19.119Z,74.18
2022-11-22T13:10:56.594Z,74.22
2022-11-22T13:13:30.119Z,73.59
2022-11-22T13:16:01.395Z,73.71
2022-11-22T13:18:32.895Z,73.98
2022-11-22T13:21:06.354Z,73.92
2022-11-22T13:24:18.498Z,74.07
2022-11-22T13:27:01.451Z,74.15
2022-11-22T13:29:31.616Z,74.44
2022-11-22T13:32:17.228Z,74.72
2022-11-22T13:35:07.547Z,74.10
2022-11-22T13:37:39.233Z,74.38
2022-11-22T13:40:26.865Z,75.02
2022-11-22T13:43:21.610Z,74.72
2022-11-22T13:45:57.580Z,75.18
2022-11-22T13:48:39.803Z,74.89
2022-11-22T13:51:07.586Z,74.01
2022-11-22T13:53:39.758Z,74.33
2022-11-22T13:56:15.428Z,74.66
2022-11-22T13:58:50.970Z,74.79
2022-11-22T14:01:36.601Z,74.44
2022-11-22T14:04:15.913Z,74.98
2022-11-22T14:07:10.542Z,74.30
2022-11-22T14:09:52.860Z,74.53
2022-11-22T14:12:56.718Z,74.46
2022-11-22T14:15:41.945Z,74.27
2022-11-22T14:18:41.122Z,75.04
2022-11-22T14:21:39.688Z,75.16
2022-11-22T14:24:34.265Z,74.91
2022-11-22T14:27:22.475Z,75.21
2022-11-22T14:29:54.050Z,74.71
2022-11-22T14:32:24.378Z,74.62
2022-11-22T14:35:17.724Z,74.93
2022-11-22T14:38:06.937Z,74.45
2022-11-22T14:40:41.489Z,74.91
2022-11-22T14:43:11.268Z,74.77
2022-11-22T14:45:38.232Z,74.70
2022-11-22T14:48:20.365Z,75.26
2022-11-22T14:51:14.918Z,75.54
2022-11-22T14:53:52.574Z,75.56
2022-11-22T14:56:33.138Z,75.04
2022-11-22T14:59:31.179Z,75.93
2022-11-22T15:02:39.336Z,75.28
2022-11-22T15:09:11.961Z,75.32
2022-11-22T15:09:20.684Z,74.52
2022-11-22T15:11:27.392Z,75.51
2022-11-22T15:14:00.328Z,75.26
2022-11-22T15:57:30.381Z,75.50
2022-11-22T15:59:58.480Z,76.16
2022-11-22T16:02:27.494Z,76.41
2022-11-22T16:06:06.403Z,75.94
2022-11-22T16:07:55.490Z,76.05
2022-11-22T16:10:30.328Z,76.18
2022-11-22T16:12:57.465Z,75.63
2022-11-22T16:15:35.086Z,75.57
2022-11-22T16:18:08.184Z,74.86
2022-11-22T16:20:37.253Z,75.19
2022-11-22T16:23:10.247Z,74.75
2022-11-22T16:25:39.622Z,74.88
2022-11-22T16:28:26.839Z,75.17
2022-11-22T16:30:55.951Z,75.04
2022-11-22T16:33:23.564Z,75.03
2022-11-22T16:35:55.969Z,74.59
2022-11-22T16:38:24.157Z,74.64
2022-11-22T16:40:52.617Z,74.84
2022-11-22T16:43:24.208Z,74.90
2022-11-22T16:45:52.142Z,74.39
2022-11-22T16:48:37.649Z,74.46
2022-11-22T16:51:15.993Z,75.13
2022-11-22T16:53:45.549Z,74.95
2022-11-22T16:56:19.045Z,75.06
2022-11-22T16:58:50.148Z,74.87
2022-11-22T17:01:22.712Z,75.09
2022-11-22T17:03:52.250Z,74.42
2022-11-22T17:06:21.521Z,74.16
2022-11-22T17:08:50.269Z,74.82
2022-11-22T17:11:21.736Z,75.03
2022-11-22T17:13:48.979Z,74.61
2022-11-22T17:16:16.191Z,74.54
2022-11-22T17:18:43.734Z,74.37
2022-11-22T17:21:20.944Z,74.40
2022-11-22T17:23:49.119Z,74.85
2022-11-22T17:26:16.533Z,74.85
2022-11-22T17:28:47.169Z,75.27
2022-11-22T17:31:17.780Z,74.12
2022-11-22T17:33:44.699Z,74.42
2022-11-22T17:36:32.071Z,75.01
2022-11-22T17:39:01.052Z,74.43
2022-11-22T17:41:28.084Z,74.78
2022-11-22T17:43:57.178Z,74.50
2022-11-22T17:46:24.606Z,74.59
2022-11-22T17:48:57.036Z,75.09
2022-11-22T17:51:24.685Z,74.88
2022-11-22T17:53:52.217Z,74.82
2022-11-22T17:56:19.829Z,74.57
2022-11-22T17:58:47.171Z,74.91
2022-11-22T18:01:17.266Z,75.02
2022-11-22T18:03:45.399Z,74.51
2022-11-22T18:06:13.852Z,74.44
2022-11-22T18:08:46.461Z,74.86
2022-11-22T18:11:14.897Z,75.59
2022-11-22T18:13:42.475Z,75.13
2022-11-22T18:16:11.973Z,75.40
2022-11-22T18:21:27.675Z,75.67
2022-11-22T18:23:54.577Z,75.38
2022-11-22T18:26:38.741Z,75.00
2022-11-22T18:31:54.190Z,75.22
2022-11-22T18:34:22.789Z,74.80
2022-11-22T18:36:55.715Z,75.43
2022-11-22T18:39:26.704Z,74.77
2022-11-22T18:41:53.757Z,75.27
2022-11-22T18:44:20.679Z,75.23
2022-11-22T18:46:47.807Z,74.83
2022-11-22T18:49:15.016Z,75.11
2022-11-22T18:51:42.095Z,75.08
2022-11-22T18:54:09.566Z,74.73
2022-11-22T18:56:36.399Z,74.35
2022-11-22T18:59:03.996Z,75.20
2022-11-22T19:01:32.889Z,74.70
2022-11-22T19:04:01.349Z,74.98
2022-11-22T19:06:28.459Z,75.19
2022-11-22T19:08:55.453Z,74.37
2022-11-22T19:11:22.331Z,74.55
2022-11-22T19:13:49.312Z,74.46
2022-11-22T19:16:19.460Z,74.60
2022-11-22T19:18:46.479Z,74.96
2022-11-22T19:21:20.677Z,74.42
2022-11-22T19:23:48.480Z,74.97
2022-11-22T19:26:18.952Z,75.57
2022-11-22T19:28:46.894Z,75.67
2022-11-22T19:31:24.783Z,75.18
2022-11-22T19:33:52.212Z,74.92
2022-11-22T19:36:30.732Z,75.05
2022-11-22T19:38:59.847Z,75.50
2022-11-22T19:41:26.818Z,75.70
2022-11-22T19:43:55.477Z,75.94
2022-11-22T19:46:22.854Z,74.85
2022-11-22T19:49:09.014Z,75.44
2022-11-22T19:51:35.971Z,74.93
2022-11-22T19:54:03.746Z,74.71
2022-11-22T19:56:35.813Z,75.42
2022-11-22T19:59:05.777Z,74.74
2022-11-22T20:01:33.972Z,75.33
2022-11-22T20:04:03.931Z,75.83
2022-11-22T20:06:32.551Z,75.12
2022-11-22T20:09:05.319Z,74.98
2022-11-22T20:11:32.318Z,74.87
2022-11-22T20:13:59.123Z,75.01
2022-11-22T20:16:28.537Z,74.98
2022-11-22T20:19:00.593Z,75.03
2022-11-22T20:21:29.800Z,74.53
2022-11-22T20:23:56.904Z,74.75
2022-11-22T20:26:25.022Z,75.33
2022-11-22T20:29:00.917Z,75.32
2022-11-22T20:31:30.496Z,74.67
2022-11-22T20:33:59.013Z,74.94
2022-11-22T20:36:28.704Z,74.48
2022-11-22T20:38:56.286Z,73.62
2022-11-22T20:41:26.853Z,74.40
2022-11-22T20:43:54.113Z,74.66
2022-11-22T20:46:24.377Z,74.77
2022-11-22T20:48:52.124Z,74.36
2022-11-22T20:51:24.076Z,74.19
2022-11-22T20:53:51.535Z,74.19
2022-11-22T20:56:19.229Z,74.25
2022-11-22T20:58:46.972Z,74.35
2022-11-22T21:01:20.200Z,74.28
2022-11-22T21:03:47.881Z,74.19
2022-11-22T21:06:16.309Z,74.87
2022-11-22T21:08:43.225Z,74.63
2022-11-22T21:11:15.322Z,75.32
2022-11-22T21:13:43.603Z,75.84
2022-11-22T21:16:22.652Z,75.54
2022-11-22T21:18:51.298Z,75.47
2022-11-22T21:21:18.196Z,75.10
2022-11-22T21:23:45.203Z,75.21
2022-11-22T21:26:12.095Z,75.73
2022-11-22T21:28:39.039Z,75.25
2022-11-22T21:31:06.661Z,75.94
2022-11-22T21:33:35.736Z,75.20
2022-11-22T21:36:05.518Z,75.33
2022-11-22T21:38:36.125Z,75.66
2022-11-22T21:41:31.783Z,75.66
2022-11-22T21:43:54.560Z,75.47
2022-11-22T21:46:21.413Z,75.14
2022-11-22T21:48:48.685Z,76.09
2022-11-22T21:51:15.546Z,76.18
2022-11-22T21:53:42.559Z,75.89
2022-11-22T21:56:09.692Z,75.80
2022-11-22T21:58:36.528Z,75.49
2022-11-22T22:01:03.389Z,75.52
2022-11-22T22:03:30.946Z,75.60
2022-11-22T22:05:58.110Z,75.25
2022-11-22T22:08:25.881Z,75.18
2022-11-22T22:10:52.739Z,75.20
2022-11-22T22:13:19.674Z,75.68
2022-11-22T22:15:47.568Z,74.65
2022-11-22T22:18:14.841Z,74.89
2022-11-22T22:20:41.768Z,75.50
2022-11-22T22:23:08.613Z,75.59
2022-11-22T22:25:39.233Z,75.18
2022-11-22T22:28:06.084Z,75.97
2022-11-22T22:30:32.880Z,75.15
2022-11-22T22:32:59.713Z,74.90
2022-11-22T22:35:26.509Z,75.42
2022-11-22T22:37:53.301Z,74.82
2022-11-22T22:40:20.100Z,75.76
2022-11-22T22:42:46.940Z,75.99
2022-11-22T22:45:13.757Z,76.53
2022-11-22T22:47:40.538Z,76.19
2022-11-22T22:50:07.664Z,76.43
2022-11-22T22:52:34.496Z,75.76
2022-11-22T22:55:01.371Z,76.60
2022-11-22T22:57:28.372Z,76.19
2022-11-22T22:59:55.193Z,76.29
2022-11-22T23:02:22.009Z,76.35
2022-11-22T23:04:48.869Z,75.87
2022-11-22T23:07:15.714Z,75.48
2022-11-22T23:09:42.558Z,75.49
2022-11-22T23:12:09.468Z,75.62
2022-11-22T23:14:36.292Z,75.54
2022-11-22T23:17:03.168Z,75.79
2022-11-22T23:19:30.392Z,75.39
2022-11-22T23:21:57.493Z,76.05
2022-11-22T23:24:24.278Z,75.83
2022-11-22T23:26:51.130Z,75.72
2022-11-22T23:29:18.109Z,76.22
2022-11-22T23:31:44.913Z,75.43
2022-11-22T23:34:12.247Z,75.50
2022-11-22T23:36:40.864Z,75.74
2022-11-22T23:39:08.218Z,76.12
2022-11-22T23:41:35.089Z,76.08
2022-11-22T23:44:01.978Z,76.40
2022-11-22T23:46:28.867Z,76.73
2022-11-22T23:48:57.851Z,76.72
2022-11-22T23:51:26.055Z,77.12
2022-11-22T23:53:57.688Z,76.33
2022-11-22T23:56:25.452Z,77.33
2022-11-22T23:58:52.854Z,77.10
